createdAt,value
2022-09-07T00:01:20.705Z,14.57
2022-09-07T00:03:48.419Z,12.18
2022-09-07T00:06:15.947Z,10.90
2022-09-07T00:08:43.894Z,12.93
2022-09-07T00:11:15.069Z,11.00
2022-09-07T00:13:43.964Z,8.95
2022-09-07T00:16:18.583Z,12.20
2022-09-07T00:18:46.949Z,9.75
2022-09-07T00:21:16.459Z,10.45
2022-09-07T00:23:44.667Z,12.00
2022-09-07T00:26:15.887Z,6.63
2022-09-07T00:28:44.396Z,13.60
2022-09-07T00:31:14.491Z,9.90
2022-09-07T00:33:42.306Z,19.37
2022-09-07T00:36:10.053Z,13.00
2022-09-07T00:38:37.701Z,11.48
2022-09-07T00:41:05.856Z,12.02
2022-09-07T00:43:40.724Z,17.08
2022-09-07T00:46:16.914Z,17.52
2022-09-07T00:49:01.791Z,18.33
2022-09-07T00:51:49.680Z,14.02
2022-09-07T00:54:23.369Z,14.55
2022-09-07T00:56:55.313Z,10.65
2022-09-07T00:59:28.830Z,9.98
2022-09-07T01:01:56.433Z,17.55
2022-09-07T01:04:26.128Z,18.45
2022-09-07T01:06:55.872Z,16.77
2022-09-07T01:09:25.725Z,13.95
2022-09-07T01:11:57.621Z,17.97
2022-09-07T01:14:34.837Z,16.83
2022-09-07T01:17:39.333Z,26.98
2022-09-07T01:20:32.344Z,19.38
2022-09-07T01:23:11.557Z,14.77
2022-09-07T01:25:58.892Z,12.90
2022-09-07T01:28:32.356Z,18.92
2022-09-07T01:31:05.782Z,18.52
2022-09-07T01:33:43.754Z,15.05
2022-09-07T01:36:34.095Z,16.33
2022-09-07T01:39:06.165Z,15.35
2022-09-07T01:41:57.515Z,15.48
2022-09-07T01:44:40.797Z,15.90
2022-09-07T01:47:15.347Z,17.33
2022-09-07T01:50:10.038Z,15.02
2022-09-07T01:52:44.264Z,14.65
2022-09-07T01:55:27.447Z,18.23
2022-09-07T01:58:09.766Z,12.57
2022-09-07T02:00:41.335Z,18.33
2022-09-07T02:03:31.964Z,19.55
2022-09-07T02:06:05.298Z,15.15
2022-09-07T02:08:35.590Z,14.30
2022-09-07T02:11:10.597Z,15.52
2022-09-07T02:13:52.296Z,15.63
2022-09-07T02:16:30.949Z,12.70
2022-09-07T02:19:08.432Z,18.25
2022-09-07T02:21:44.911Z,10.30
2022-09-07T02:24:23.942Z,13.27
2022-09-07T02:26:54.454Z,16.75
2022-09-07T02:29:22.553Z,11.88
2022-09-07T02:31:51.672Z,19.85
2022-09-07T02:34:19.377Z,18.75
2022-09-07T02:36:50.313Z,15.68
2022-09-07T02:39:18.430Z,19.23
2022-09-07T02:41:46.771Z,13.80
2022-09-07T02:44:22.007Z,16.77
2022-09-07T02:47:14.757Z,15.35
2022-09-07T02:50:07.798Z,14.82
2022-09-07T02:52:54.214Z,17.88
2022-09-07T02:55:34.313Z,21.25
2022-09-07T02:58:22.908Z,24.33
2022-09-07T03:01:23.878Z,13.95
2022-09-07T03:04:01.765Z,12.00
2022-09-07T03:06:34.958Z,11.90
2022-09-07T03:09:07.418Z,19.25
2022-09-07T03:11:37.829Z,16.80
2022-09-07T03:14:26.263Z,16.73
2022-09-07T03:16:56.520Z,26.08
2022-09-07T03:19:24.081Z,20.70
2022-09-07T03:21:51.511Z,21.92
2022-09-07T03:24:19.478Z,23.33
2022-09-07T03:26:51.890Z,16.92
2022-09-07T03:29:20.020Z,21.38
2022-09-07T03:31:47.705Z,24.30
2022-09-07T03:34:16.515Z,18.60
2022-09-07T03:36:44.002Z,25.33
2022-09-07T03:39:13.154Z,24.95
2022-09-07T03:41:40.931Z,24.27
2022-09-07T03:44:09.190Z,23.67
2022-09-07T03:46:36.878Z,29.42
2022-09-07T03:49:04.336Z,15.35
2022-09-07T03:51:31.786Z,23.73
2022-09-07T03:54:00.350Z,22.63
2022-09-07T03:56:27.990Z,24.80
2022-09-07T03:58:55.868Z,23.45
2022-09-07T04:01:25.978Z,29.27
2022-09-07T04:04:01.760Z,28.65
2022-09-07T04:06:30.709Z,24.08
2022-09-07T04:09:03.226Z,25.17
2022-09-07T04:11:31.609Z,24.38
2022-09-07T04:13:59.156Z,28.70
2022-09-07T04:16:28.013Z,27.13
2022-09-07T04:18:55.660Z,25.83
2022-09-07T04:21:24.041Z,30.50
2022-09-07T04:23:52.206Z,26.10
2022-09-07T04:26:25.495Z,26.88
2022-09-07T04:28:54.383Z,25.50
2022-09-07T04:31:23.503Z,24.83
2022-09-07T04:33:51.838Z,28.35
2022-09-07T04:36:21.005Z,23.35
2022-09-07T04:39:04.599Z,25.77
2022-09-07T04:41:33.581Z,30.70
2022-09-07T04:44:03.094Z,18.73
2022-09-07T04:46:35.611Z,18.05
2022-09-07T04:49:09.775Z,21.23
2022-09-07T04:51:39.479Z,18.35
2022-09-07T04:54:07.362Z,14.27
2022-09-07T04:56:35.206Z,15.77
2022-09-07T04:59:03.953Z,20.73
2022-09-07T05:01:31.517Z,13.40
2022-09-07T05:04:04.314Z,21.30
2022-09-07T05:06:32.532Z,24.23
2022-09-07T05:09:00.347Z,16.63
2022-09-07T05:11:29.802Z,15.70
2022-09-07T05:14:02.521Z,19.75
2022-09-07T05:16:30.982Z,18.40
2022-09-07T05:19:01.379Z,15.27
2022-09-07T05:21:32.170Z,16.23
2022-09-07T05:24:01.169Z,23.20
2022-09-07T05:26:30.997Z,20.75
2022-09-07T05:31:48.145Z,19.05
2022-09-07T05:34:31.563Z,25.83
2022-09-07T05:37:00.556Z,26.40
2022-09-07T05:39:28.439Z,25.50
2022-09-07T05:41:56.298Z,32.30
2022-09-07T05:47:11.770Z,31.08
2022-09-07T05:49:39.472Z,30.13
2022-09-07T05:52:07.068Z,24.20
2022-09-07T05:54:34.953Z,24.48
2022-09-07T05:57:03.628Z,35.08
2022-09-07T05:59:31.274Z,34.95
2022-09-07T06:01:58.964Z,29.77
2022-09-07T06:04:26.517Z,32.08
2022-09-07T06:12:29.291Z,32.17
2022-09-07T06:14:56.806Z,30.15
2022-09-07T06:17:24.370Z,26.98
2022-09-07T06:19:51.839Z,36.50
2022-09-07T06:22:19.299Z,27.83
2022-09-07T06:24:46.916Z,24.75
2022-09-07T06:27:14.718Z,20.95
2022-09-07T06:29:42.188Z,24.17
2022-09-07T06:34:57.330Z,29.23
2022-09-07T06:37:25.042Z,27.58
2022-09-07T06:39:52.888Z,23.52
2022-09-07T06:42:20.662Z,27.77
2022-09-07T06:44:52.700Z,26.85
2022-09-07T06:47:20.209Z,29.40
2022-09-07T06:49:47.756Z,27.25
2022-09-07T06:52:15.251Z,22.13
2022-09-07T06:57:27.035Z,26.65
2022-09-07T06:59:54.599Z,26.80
2022-09-07T07:02:22.229Z,21.90
2022-09-07T07:04:50.447Z,24.52
2022-09-07T07:07:18.600Z,22.80
2022-09-07T07:09:46.196Z,28.00
2022-09-07T07:12:13.897Z,25.40
2022-09-07T07:14:44.938Z,20.10
2022-09-07T07:17:13.682Z,20.33
2022-09-07T07:19:41.750Z,16.48
2022-09-07T07:22:45.610Z,23.67
2022-09-07T07:24:57.082Z,20.52
2022-09-07T07:27:25.054Z,30.83
2022-09-07T07:29:54.154Z,20.88
2022-09-07T07:32:22.558Z,25.20
2022-09-07T07:34:50.882Z,29.17
2022-09-07T07:37:18.950Z,25.98
2022-09-07T07:42:35.647Z,22.85
2022-09-07T07:47:52.170Z,23.08
2022-09-07T07:50:37.011Z,34.30
2022-09-07T07:55:53.642Z,25.45
2022-09-07T07:58:21.328Z,19.08
2022-09-07T08:00:56.597Z,24.73
2022-09-07T08:03:25.561Z,20.80
2022-09-07T08:05:53.999Z,31.90
2022-09-07T08:08:23.278Z,25.67
2022-09-07T08:10:50.957Z,19.10
2022-09-07T08:13:19.238Z,26.08
2022-09-07T08:15:47.197Z,33.25
2022-09-07T08:18:17.051Z,24.95
2022-09-07T08:20:44.724Z,32.22
2022-09-07T08:23:12.268Z,26.75
2022-09-07T08:25:52.819Z,18.58
2022-09-07T08:28:21.811Z,19.92
2022-09-07T08:30:49.914Z,25.05
2022-09-07T08:33:17.957Z,24.25
2022-09-07T08:36:00.490Z,18.33
2022-09-07T08:38:30.641Z,29.42
2022-09-07T08:40:59.176Z,21.52
2022-09-07T08:43:52.535Z,24.05
2022-09-07T08:46:36.556Z,25.75
2022-09-07T08:49:06.040Z,20.25
2022-09-07T08:51:55.334Z,28.58
2022-09-07T08:54:22.972Z,25.35
2022-09-07T08:59:48.473Z,27.65
2022-09-07T09:02:38.372Z,20.63
2022-09-07T09:05:34.252Z,21.35
2022-09-07T09:08:33.570Z,21.50
2022-09-07T09:11:22.717Z,20.55
2022-09-07T09:14:05.532Z,26.88
2022-09-07T09:16:49.595Z,23.85
2022-09-07T09:19:35.241Z,16.88
2022-09-07T09:22:25.718Z,21.90
2022-09-07T09:25:13.089Z,23.05
2022-09-07T09:27:40.786Z,20.08
2022-09-07T09:30:17.818Z,19.67
2022-09-07T09:32:48.459Z,23.17
2022-09-07T09:35:34.576Z,25.88
2022-09-07T09:38:05.031Z,17.65
2022-09-07T09:40:34.961Z,18.33
2022-09-07T09:43:02.516Z,21.88
2022-09-07T09:48:40.043Z,15.80
2022-09-07T09:54:07.162Z,11.43
2022-09-07T09:56:43.678Z,15.30
2022-09-07T10:05:37.960Z,28.42
2022-09-07T10:08:19.256Z,16.45
2022-09-07T10:11:01.781Z,19.10
2022-09-07T10:13:37.793Z,18.38
2022-09-07T10:16:08.013Z,16.30
2022-09-07T10:18:40.638Z,26.02
2022-09-07T10:21:22.208Z,19.17
2022-09-07T10:24:07.603Z,20.88
2022-09-07T10:26:39.729Z,18.02
2022-09-07T10:29:12.060Z,23.95
2022-09-07T10:31:57.544Z,14.07
2022-09-07T10:34:43.927Z,16.80
2022-09-07T10:37:42.424Z,22.25
2022-09-07T10:40:24.097Z,24.17
2022-09-07T10:46:56.330Z,16.85
2022-09-07T10:50:21.796Z,24.40
2022-09-07T10:52:48.916Z,18.58
2022-09-07T10:55:27.963Z,17.27
2022-09-07T10:59:01.588Z,18.75
2022-09-07T11:01:32.643Z,22.40
2022-09-07T11:04:38.394Z,23.45
2022-09-07T11:07:21.087Z,25.33
2022-09-07T11:10:13.789Z,21.25
2022-09-07T11:12:44.234Z,20.38
2022-09-07T11:15:28.593Z,14.63
2022-09-07T11:17:59.658Z,19.00
2022-09-07T11:20:33.177Z,13.82
2022-09-07T11:23:18.302Z,22.10
2022-09-07T11:26:11.322Z,15.82
2022-09-07T11:31:56.060Z,12.65
2022-09-07T11:34:30.423Z,18.23
2022-09-07T11:37:06.333Z,19.55
2022-09-07T11:39:44.397Z,19.02
2022-09-07T11:42:43.483Z,13.93
2022-09-07T11:45:29.927Z,19.75
2022-09-07T11:48:07.618Z,16.00
2022-09-07T11:50:39.303Z,18.08
2022-09-07T11:53:14.603Z,15.55
2022-09-07T11:55:46.384Z,13.90
2022-09-07T11:58:13.998Z,14.15
2022-09-07T12:01:08.732Z,15.10
2022-09-07T12:04:04.399Z,16.48
2022-09-07T12:07:16.992Z,23.80
2022-09-07T12:09:51.314Z,17.58
2022-09-07T12:12:43.614Z,15.35
2022-09-07T12:15:39.141Z,11.98
2022-09-07T12:18:39.632Z,10.75
2022-09-07T12:21:29.641Z,8.30
2022-09-07T12:23:57.471Z,10.43
2022-09-07T12:26:34.219Z,6.95
2022-09-07T12:29:01.637Z,9.02
2022-09-07T12:31:59.266Z,11.30
2022-09-07T12:34:31.309Z,12.75
2022-09-07T12:37:22.733Z,14.95
2022-09-07T12:39:50.307Z,13.32
2022-09-07T12:42:36.949Z,13.13
2022-09-07T12:45:30.142Z,14.48
2022-09-07T12:47:59.770Z,15.57
2022-09-07T12:50:54.052Z,12.88
2022-09-07T12:53:33.547Z,17.48
2022-09-07T12:56:26.706Z,18.10
2022-09-07T12:59:32.034Z,19.98
2022-09-07T13:02:37.614Z,12.30
2022-09-07T13:05:14.423Z,15.77
2022-09-07T13:08:09.924Z,17.45
2022-09-07T13:10:41.207Z,13.45
2022-09-07T13:13:14.914Z,14.23
2022-09-07T13:15:51.881Z,12.60
2022-09-07T13:18:28.957Z,16.40
2022-09-07T13:21:42.607Z,14.75
2022-09-07T13:27:06.407Z,19.50
2022-09-07T13:29:41.677Z,21.70
2022-09-07T13:35:25.063Z,11.98
2022-09-07T13:37:55.678Z,14.55
2022-09-07T13:42:57.308Z,14.82
2022-09-07T13:45:33.484Z,13.23
2022-09-07T13:48:36.249Z,10.85
2022-09-07T13:51:03.733Z,11.05
2022-09-07T13:53:36.437Z,15.13
2022-09-07T13:56:19.916Z,11.93
2022-09-07T13:58:51.903Z,15.43
2022-09-07T14:01:25.003Z,15.50
2022-09-07T14:03:55.994Z,11.90
2022-09-07T14:06:25.509Z,18.33
2022-09-07T14:08:59.559Z,13.52
2022-09-07T14:11:36.173Z,14.43
2022-09-07T14:14:20.277Z,12.27
2022-09-07T14:16:54.214Z,12.45
2022-09-07T14:19:26.033Z,13.60
2022-09-07T14:22:03.210Z,11.98
2022-09-07T14:24:36.880Z,12.27
2022-09-07T14:27:06.427Z,9.70
2022-09-07T14:29:36.209Z,13.48
2022-09-07T14:32:04.555Z,9.80
2022-09-07T14:34:35.424Z,10.38
2022-09-07T14:37:08.204Z,9.73
2022-09-07T14:39:39.589Z,11.48
2022-09-07T14:42:08.071Z,13.02
2022-09-07T14:44:39.009Z,12.00
2022-09-07T14:47:30.427Z,15.82
2022-09-07T14:50:06.635Z,12.77
2022-09-07T14:53:32.933Z,14.27
2022-09-07T14:55:39.957Z,9.93
2022-09-07T14:58:13.641Z,16.13
2022-09-07T15:00:46.632Z,14.18
2022-09-07T15:03:33.480Z,7.40
2022-09-07T15:06:02.508Z,17.52
2022-09-07T15:08:44.341Z,16.85
2022-09-07T15:11:39.513Z,14.60
2022-09-07T15:14:12.401Z,17.75
2022-09-07T15:16:42.853Z,14.32
2022-09-07T15:21:45.186Z,12.05
2022-09-07T15:24:12.770Z,11.05
2022-09-07T15:27:02.499Z,15.48
2022-09-07T15:29:30.618Z,12.93
2022-09-07T15:32:03.863Z,14.18
2022-09-07T15:34:34.396Z,9.38
2022-09-07T15:37:03.706Z,16.88
2022-09-07T15:39:34.390Z,12.48
2022-09-07T15:42:59.605Z,14.30
2022-09-07T15:44:50.493Z,22.35
2022-09-07T15:50:07.287Z,14.50
2022-09-07T15:52:34.853Z,23.85
2022-09-07T15:55:02.362Z,14.82
2022-09-07T16:00:19.028Z,18.00
2022-09-07T16:03:06.539Z,12.18
2022-09-07T16:05:34.968Z,15.10
2022-09-07T16:10:55.713Z,11.20
2022-09-07T16:13:24.363Z,10.02
2022-09-07T16:15:52.038Z,11.43
2022-09-07T16:18:19.646Z,10.57
2022-09-07T16:20:47.480Z,12.68
2022-09-07T16:23:16.991Z,16.15
2022-09-07T16:25:59.557Z,14.40
2022-09-07T16:28:28.653Z,14.50
2022-09-07T16:30:56.598Z,12.80
2022-09-07T16:33:31.571Z,19.48
2022-09-07T16:36:07.147Z,13.00
2022-09-07T16:41:20.558Z,15.30
2022-09-07T16:43:48.387Z,17.20
2022-09-07T16:46:18.706Z,12.82
2022-09-07T16:48:46.346Z,16.48
2022-09-07T16:51:16.474Z,13.75
2022-09-07T16:53:43.833Z,17.42
2022-09-07T16:56:13.752Z,13.70
2022-09-07T16:58:43.531Z,15.33
2022-09-07T17:01:15.000Z,15.38
2022-09-07T17:03:43.567Z,16.35
2022-09-07T17:06:13.820Z,14.15
2022-09-07T17:08:42.478Z,15.10
2022-09-07T17:11:15.895Z,13.85
2022-09-07T17:13:44.795Z,12.10
2022-09-07T17:16:14.994Z,15.20
2022-09-07T17:21:36.690Z,13.98
2022-09-07T17:24:07.084Z,11.88
2022-09-07T17:26:34.893Z,17.98
2022-09-07T17:29:02.766Z,21.98
2022-09-07T17:34:20.961Z,21.42
2022-09-07T17:36:48.448Z,16.90
2022-09-07T17:39:17.603Z,19.45
2022-09-07T17:41:52.662Z,22.00
2022-09-07T17:44:23.085Z,17.27
2022-09-07T17:46:51.309Z,22.92
2022-09-07T17:49:19.152Z,17.73
2022-09-07T17:51:46.846Z,15.10
2022-09-07T17:54:17.485Z,16.35
2022-09-07T18:02:01.133Z,13.00
2022-09-07T18:04:28.947Z,22.38
2022-09-07T18:06:56.559Z,26.00
2022-09-07T18:09:24.351Z,15.43
2022-09-07T18:11:51.732Z,15.82
2022-09-07T18:14:19.660Z,18.25
2022-09-07T18:16:49.869Z,19.20
2022-09-07T18:19:18.666Z,12.93
2022-09-07T18:21:47.756Z,14.45
2022-09-07T18:24:19.061Z,16.88
2022-09-07T18:26:52.278Z,24.15
2022-09-07T18:29:37.440Z,25.85
2022-09-07T18:32:08.903Z,20.85
2022-09-07T18:34:40.660Z,22.00
2022-09-07T18:37:09.198Z,19.92
2022-09-07T18:39:36.841Z,22.92
2022-09-07T18:42:04.566Z,22.60
2022-09-07T18:47:28.007Z,16.83
2022-09-07T18:49:57.271Z,17.98
2022-09-07T18:55:13.377Z,16.63
2022-09-07T18:57:40.917Z,15.30
2022-09-07T19:00:10.356Z,20.15
2022-09-07T19:02:37.845Z,24.05
2022-09-07T19:07:53.372Z,15.63
2022-09-07T19:10:20.805Z,21.40
2022-09-07T19:12:48.304Z,21.02
2022-09-07T19:15:15.788Z,26.65
2022-09-07T19:17:43.282Z,20.55
2022-09-07T19:20:10.787Z,14.43
2022-09-07T19:22:38.981Z,18.30
2022-09-07T19:25:06.829Z,20.90
2022-09-07T19:27:34.342Z,15.95
2022-09-07T19:30:01.825Z,18.83
2022-09-07T19:32:29.763Z,19.15
2022-09-07T19:34:57.331Z,20.33
2022-09-07T19:37:25.550Z,21.52
2022-09-07T19:39:56.016Z,18.55
2022-09-07T19:42:24.315Z,20.15
2022-09-07T19:44:52.742Z,15.15
2022-09-07T19:47:21.000Z,16.30
2022-09-07T19:49:48.628Z,16.10
2022-09-07T19:52:16.569Z,14.40
2022-09-07T19:54:43.967Z,17.80
2022-09-07T19:57:11.465Z,16.95
2022-09-07T19:59:38.829Z,15.30
2022-09-07T20:02:07.142Z,19.10
2022-09-07T20:04:35.762Z,13.52
2022-09-07T20:07:03.950Z,16.67
2022-09-07T20:09:31.375Z,11.80
2022-09-07T20:12:01.709Z,22.20
2022-09-07T20:14:29.494Z,20.35
2022-09-07T20:16:57.281Z,17.85
2022-09-07T20:19:24.684Z,14.27
2022-09-07T20:21:55.672Z,21.58
2022-09-07T20:24:23.614Z,20.20
2022-09-07T20:26:51.055Z,17.38
2022-09-07T20:29:34.081Z,18.75
2022-09-07T20:32:02.675Z,15.55
2022-09-07T20:34:30.324Z,18.55
2022-09-07T20:36:57.979Z,18.23
2022-09-07T20:39:25.408Z,17.73
2022-09-07T20:41:52.873Z,16.88
2022-09-07T20:44:20.310Z,20.48
2022-09-07T20:46:47.912Z,9.32
2022-09-07T20:49:15.374Z,6.72
2022-09-07T20:51:42.781Z,14.60
2022-09-07T20:54:10.304Z,7.38
2022-09-07T20:56:38.271Z,11.48
2022-09-07T20:59:06.860Z,5.63
2022-09-07T21:01:35.208Z,5.65
2022-09-07T21:04:03.940Z,4.32
2022-09-07T21:06:32.853Z,8.27
2022-09-07T21:09:00.849Z,4.55
2022-09-07T21:11:31.260Z,5.47
2022-09-07T21:14:00.507Z,7.13
2022-09-07T21:16:29.177Z,8.32
2022-09-07T21:18:58.766Z,5.43
2022-09-07T21:21:27.644Z,9.52
2022-09-07T21:23:56.800Z,5.57
2022-09-07T21:26:25.279Z,5.90
2022-09-07T21:29:00.904Z,4.50
2022-09-07T21:31:30.333Z,6.97
2022-09-07T21:34:00.551Z,4.85
2022-09-07T21:36:28.424Z,4.40
2022-09-07T21:38:56.712Z,2.35
2022-09-07T21:41:25.875Z,4.35
2022-09-07T21:43:55.864Z,3.80
2022-09-07T21:46:24.013Z,7.13
2022-09-07T21:48:51.784Z,4.95
2022-09-07T21:51:19.411Z,4.30
2022-09-07T21:53:52.252Z,3.15
2022-09-07T21:56:19.859Z,3.63
2022-09-07T21:58:47.508Z,5.55
2022-09-07T22:01:18.952Z,1.40
2022-09-07T22:03:48.556Z,2.80
2022-09-07T22:06:16.022Z,2.25
2022-09-07T22:08:43.422Z,1.40
2022-09-07T22:11:14.227Z,5.85
2022-09-07T22:13:44.376Z,4.18
2022-09-07T22:16:13.376Z,2.25
2022-09-07T22:18:45.226Z,5.60
2022-09-07T22:21:22.149Z,2.65
2022-09-07T22:23:52.475Z,4.13
2022-09-07T22:26:22.010Z,5.60
2022-09-07T22:28:49.854Z,2.70
2022-09-07T22:31:23.376Z,2.17
2022-09-07T22:33:52.480Z,2.90
2022-09-07T22:36:21.350Z,3.95
2022-09-07T22:38:52.291Z,5.65
2022-09-07T22:41:23.126Z,2.17
2022-09-07T22:46:20.341Z,3.17
2022-09-07T22:48:48.139Z,2.50
2022-09-07T22:51:16.688Z,3.03
2022-09-07T22:53:44.464Z,2.63
2022-09-07T22:56:17.004Z,2.45
2022-09-07T22:58:53.193Z,5.32
2022-09-07T23:01:21.868Z,4.75
2022-09-07T23:03:50.133Z,3.20
2022-09-07T23:06:21.736Z,3.08
2022-09-07T23:08:50.177Z,3.42
2022-09-07T23:11:17.877Z,2.92
2022-09-07T23:13:45.557Z,5.60
2022-09-07T23:16:13.198Z,1.70
2022-09-07T23:18:40.946Z,2.50
2022-09-07T23:21:08.814Z,5.18
2022-09-07T23:23:36.499Z,4.90
2022-09-07T23:26:05.511Z,5.13
2022-09-07T23:28:33.333Z,3.28
2022-09-07T23:31:00.844Z,2.30
2022-09-07T23:33:28.312Z,4.60
2022-09-07T23:35:56.491Z,7.25
2022-09-07T23:38:25.052Z,3.60
2022-09-07T23:40:53.649Z,4.68
2022-09-07T23:43:22.694Z,7.20
2022-09-07T23:45:50.457Z,5.45
2022-09-07T23:48:17.853Z,5.20
2022-09-07T23:50:45.465Z,5.28
2022-09-07T23:53:13.578Z,3.50
2022-09-07T23:55:42.019Z,3.45
2022-09-07T23:58:09.744Z,3.72
